createdAt,value
2018-01-25T00:01:19.379Z,60.28
2018-01-25T00:06:20.899Z,60.68
2018-01-25T00:11:22.207Z,60.75
2018-01-25T00:16:23.621Z,61.16
2018-01-25T00:21:25.678Z,61.41
2018-01-25T00:26:27.014Z,61.33
2018-01-25T00:31:29.078Z,61.59
2018-01-25T00:36:30.399Z,61.40
2018-01-25T00:41:32.486Z,62.15
2018-01-25T00:46:33.894Z,62.42
2018-01-25T00:51:35.220Z,62.94
2018-01-25T00:56:36.518Z,62.69
2018-01-25T01:01:37.893Z,63.45
2018-01-25T01:06:39.235Z,64.62
2018-01-25T01:11:40.541Z,69.18
2018-01-25T01:16:42.690Z,73.25
2018-01-25T01:21:43.990Z,74.71
2018-01-25T01:26:45.340Z,75.11
2018-01-25T01:31:46.688Z,75.46
2018-01-25T01:36:48.018Z,75.52
2018-01-25T01:41:49.402Z,75.46
2018-01-25T01:46:51.507Z,75.97
2018-01-25T01:51:52.833Z,76.26
2018-01-25T01:56:54.171Z,76.67
2018-01-25T02:01:55.503Z,77.03
2018-01-25T02:06:56.842Z,77.45
2018-01-25T02:11:58.175Z,77.01
2018-01-25T02:16:59.516Z,77.26
2018-01-25T02:22:00.855Z,77.25
2018-01-25T02:27:02.170Z,77.16
2018-01-25T02:32:03.532Z,77.14
2018-01-25T02:37:04.842Z,77.06
2018-01-25T02:42:06.201Z,76.93
2018-01-25T02:47:07.550Z,76.82
2018-01-25T02:52:08.923Z,76.80
2018-01-25T02:57:10.250Z,77.00
2018-01-25T03:02:11.570Z,76.97
2018-01-25T03:07:12.906Z,76.74
2018-01-25T03:12:14.221Z,76.67
2018-01-25T03:17:15.633Z,76.71
2018-01-25T03:22:17.691Z,76.69
2018-01-25T03:27:19.021Z,76.84
2018-01-25T03:32:21.087Z,76.96
2018-01-25T03:37:22.411Z,77.00
2018-01-25T03:42:23.767Z,76.20
2018-01-25T03:47:25.104Z,75.84
2018-01-25T03:52:27.157Z,75.84
2018-01-25T03:57:28.482Z,75.90
2018-01-25T04:02:29.818Z,75.76
2018-01-25T04:07:31.120Z,75.95
2018-01-25T04:12:32.454Z,75.81
2018-01-25T04:17:33.794Z,75.89
2018-01-25T04:22:35.108Z,76.03
2018-01-25T04:27:36.423Z,76.02
2018-01-25T04:32:38.495Z,75.88
2018-01-25T04:37:39.855Z,75.75
2018-01-25T04:42:41.204Z,75.43
2018-01-25T04:47:43.303Z,74.82
2018-01-25T04:52:44.596Z,74.45
2018-01-25T04:57:45.930Z,73.96
2018-01-25T05:02:47.288Z,73.28
2018-01-25T05:07:49.488Z,72.30
2018-01-25T05:12:51.041Z,72.16
2018-01-25T05:17:56.418Z,72.44
2018-01-25T05:22:57.822Z,72.89
2018-01-25T05:27:59.176Z,73.31
2018-01-25T05:33:00.503Z,73.80
2018-01-25T05:38:01.851Z,73.79
2018-01-25T05:43:03.176Z,74.13
2018-01-25T05:48:04.496Z,74.28
2018-01-25T05:53:06.551Z,74.22
2018-01-25T05:58:07.963Z,73.97
2018-01-25T06:03:09.300Z,73.85
2018-01-25T06:08:11.462Z,73.93
2018-01-25T06:13:12.839Z,73.60
2018-01-25T06:18:15.337Z,73.60
2018-01-25T06:23:16.715Z,73.49
2018-01-25T06:28:18.796Z,73.72
2018-01-25T06:33:20.113Z,73.77
2018-01-25T06:38:22.182Z,73.71
2018-01-25T06:43:23.515Z,73.50
2018-01-25T06:48:25.550Z,73.34
2018-01-25T06:53:26.872Z,73.56
2018-01-25T06:58:28.210Z,73.37
2018-01-25T07:03:29.531Z,73.32
2018-01-25T07:08:30.862Z,73.58
2018-01-25T07:13:32.911Z,73.62
2018-01-25T07:18:34.251Z,73.05
2018-01-25T07:23:35.615Z,73.03
2018-01-25T07:28:36.907Z,73.31
2018-01-25T07:33:38.246Z,73.23
2018-01-25T07:38:39.568Z,73.22
2018-01-25T07:43:40.903Z,73.09
2018-01-25T07:48:42.972Z,73.37
2018-01-25T07:53:44.288Z,73.32
2018-01-25T07:58:45.596Z,73.38
2018-01-25T08:03:47.627Z,73.25
2018-01-25T08:08:48.963Z,72.98
2018-01-25T08:13:50.266Z,72.87
2018-01-25T08:18:51.580Z,72.63
2018-01-25T08:23:52.922Z,72.52
2018-01-25T08:28:54.222Z,72.70
2018-01-25T08:33:55.519Z,72.35
2018-01-25T08:38:57.007Z,72.38
2018-01-25T08:43:58.302Z,72.21
2018-01-25T08:48:59.613Z,72.20
2018-01-25T08:54:00.945Z,71.51
2018-01-25T08:59:02.238Z,71.05
2018-01-25T09:04:03.598Z,70.65
2018-01-25T09:09:04.955Z,70.46
2018-01-25T09:14:06.315Z,70.13
2018-01-25T09:19:07.656Z,69.90
2018-01-25T09:24:08.968Z,69.53
2018-01-25T09:29:10.306Z,68.59
2018-01-25T09:34:11.619Z,68.41
2018-01-25T09:39:12.982Z,68.26
2018-01-25T09:44:14.289Z,67.98
2018-01-25T09:49:16.331Z,67.60
2018-01-25T09:54:17.739Z,66.85
2018-01-25T09:59:19.014Z,66.32
2018-01-25T10:04:20.324Z,66.25
2018-01-25T10:09:21.733Z,65.65
2018-01-25T10:14:23.301Z,65.89
2018-01-25T10:19:24.391Z,65.93
2018-01-25T10:24:25.718Z,66.64
2018-01-25T10:29:27.773Z,66.17
2018-01-25T10:34:29.098Z,66.53
2018-01-25T10:39:30.422Z,66.40
2018-01-25T10:44:31.748Z,66.62
2018-01-25T10:49:33.030Z,66.91
2018-01-25T10:54:34.570Z,66.04
2018-01-25T10:59:36.612Z,65.76
2018-01-25T11:04:37.930Z,66.19
2018-01-25T11:09:39.275Z,66.17
2018-01-25T11:14:40.598Z,65.63
2018-01-25T11:19:42.927Z,65.77
2018-01-25T11:24:44.235Z,65.91
2018-01-25T11:29:45.546Z,65.56
2018-01-25T11:34:47.579Z,65.38
2018-01-25T11:39:48.895Z,65.81
2018-01-25T11:44:50.251Z,65.71
2018-01-25T11:49:51.648Z,65.74
2018-01-25T11:54:52.992Z,66.21
2018-01-25T11:59:54.326Z,66.28
2018-01-25T12:04:55.663Z,66.71
2018-01-25T12:09:56.986Z,67.06
2018-01-25T12:14:58.321Z,67.14
2018-01-25T12:19:59.630Z,67.81
2018-01-25T12:25:00.971Z,67.74
2018-01-25T12:30:02.310Z,67.79
2018-01-25T12:35:03.667Z,66.94
2018-01-25T12:40:05.023Z,66.49
2018-01-25T12:45:07.095Z,66.56
2018-01-25T12:50:08.423Z,65.79
2018-01-25T12:55:09.800Z,65.01
2018-01-25T13:00:11.859Z,64.33
2018-01-25T13:05:13.216Z,64.42
2018-01-25T13:10:14.564Z,64.31
2018-01-25T13:15:16.052Z,64.70
2018-01-25T13:20:17.578Z,65.25
2018-01-25T13:25:19.724Z,65.06
2018-01-25T13:30:21.641Z,64.87
2018-01-25T13:35:23.020Z,64.89
2018-01-25T13:40:24.459Z,64.87
2018-01-25T13:45:26.522Z,65.22
2018-01-25T13:50:27.823Z,64.98
2018-01-25T13:55:29.189Z,65.10
2018-01-25T14:00:30.538Z,65.01
2018-01-25T14:05:32.626Z,64.72
2018-01-25T14:10:33.938Z,64.96
2018-01-25T14:15:36.022Z,64.87
2018-01-25T14:20:37.342Z,65.05
2018-01-25T14:25:39.403Z,65.00
2018-01-25T14:30:40.749Z,65.26
2018-01-25T14:35:42.067Z,65.36
2018-01-25T14:40:43.395Z,65.23
2018-01-25T14:45:44.874Z,65.40
2018-01-25T14:50:46.196Z,65.87
2018-01-25T14:55:48.330Z,65.90
2018-01-25T15:00:49.645Z,66.37
2018-01-25T15:05:50.985Z,66.31
2018-01-25T15:10:53.131Z,66.48
2018-01-25T15:15:54.490Z,66.56
2018-01-25T15:20:55.934Z,66.70
2018-01-25T15:25:59.427Z,66.62
2018-01-25T15:31:00.576Z,66.44
2018-01-25T15:36:09.026Z,66.43
2018-01-25T15:41:10.342Z,66.58
2018-01-25T15:46:12.378Z,66.50
2018-01-25T15:51:13.711Z,66.58
2018-01-25T15:56:15.090Z,66.75
2018-01-25T16:01:16.414Z,67.34
2018-01-25T16:06:18.441Z,67.65
2018-01-25T16:11:19.761Z,67.95
2018-01-25T16:16:21.079Z,67.83
2018-01-25T16:21:23.211Z,67.95
2018-01-25T16:26:25.287Z,67.96
2018-01-25T16:31:26.684Z,68.19
2018-01-25T16:36:28.763Z,68.21
2018-01-25T16:41:30.475Z,68.29
2018-01-25T16:46:31.845Z,68.24
2018-01-25T16:51:33.166Z,68.63
2018-01-25T16:56:34.504Z,68.66
2018-01-25T17:01:35.921Z,68.58
2018-01-25T17:06:37.267Z,68.81
2018-01-25T17:11:38.675Z,69.00
2018-01-25T17:16:40.075Z,68.84
2018-01-25T17:21:41.452Z,68.40
2018-01-25T17:26:42.842Z,68.23
2018-01-25T17:31:44.229Z,68.33
2018-01-25T17:36:45.602Z,68.09
2018-01-25T17:41:47.651Z,67.92
2018-01-25T17:46:48.983Z,67.92
2018-01-25T17:51:51.039Z,67.85
2018-01-25T17:56:52.364Z,67.58
2018-01-25T18:01:53.678Z,67.34
2018-01-25T18:06:55.763Z,67.56
2018-01-25T18:11:57.186Z,67.19
2018-01-25T18:16:58.510Z,66.90
2018-01-25T18:21:59.831Z,66.60
2018-01-25T18:27:01.145Z,66.95
2018-01-25T18:32:03.238Z,67.04
2018-01-25T18:37:05.395Z,66.90
2018-01-25T18:42:06.717Z,66.73
2018-01-25T18:47:08.145Z,66.60
2018-01-25T18:52:10.197Z,66.80
2018-01-25T18:57:11.633Z,66.65
2018-01-25T19:02:13.827Z,66.58
2018-01-25T19:07:15.195Z,66.57
2018-01-25T19:12:16.542Z,66.33
2018-01-25T19:17:18.727Z,66.31
2018-01-25T19:22:20.110Z,66.40
2018-01-25T19:27:21.535Z,66.51
2018-01-25T19:32:22.905Z,66.34
2018-01-25T19:37:25.152Z,66.49
2018-01-25T19:42:26.486Z,66.43
2018-01-25T19:47:27.813Z,66.78
2018-01-25T19:52:29.139Z,66.65
2018-01-25T19:57:30.519Z,66.65
2018-01-25T20:02:31.862Z,66.49
2018-01-25T20:07:33.931Z,66.55
2018-01-25T20:12:35.259Z,66.60
2018-01-25T20:17:37.318Z,66.60
2018-01-25T20:22:38.686Z,66.55
2018-01-25T20:27:40.092Z,66.52
2018-01-25T20:32:41.490Z,66.59
2018-01-25T20:37:42.951Z,66.42
2018-01-25T20:42:44.322Z,66.37
2018-01-25T20:47:46.454Z,66.31
2018-01-25T20:52:48.048Z,66.13
2018-01-25T20:57:49.461Z,66.40
2018-01-25T21:02:50.936Z,66.48
2018-01-25T21:07:52.307Z,66.51
2018-01-25T21:12:54.860Z,66.72
2018-01-25T21:17:56.156Z,66.90
2018-01-25T21:22:58.889Z,67.14
2018-01-25T21:28:00.286Z,67.30
2018-01-25T21:33:01.946Z,67.33
2018-01-25T21:38:03.390Z,67.51
2018-01-25T21:43:04.697Z,68.02
2018-01-25T21:48:06.829Z,68.33
2018-01-25T21:53:08.398Z,68.68
2018-01-25T21:58:10.446Z,68.72
2018-01-25T22:03:11.867Z,68.83
2018-01-25T22:08:13.174Z,68.66
2018-01-25T22:13:14.684Z,68.75
2018-01-25T22:18:16.794Z,69.01
2018-01-25T22:23:18.858Z,69.22
2018-01-25T22:28:20.203Z,69.23
2018-01-25T22:33:21.552Z,69.16
2018-01-25T22:38:22.870Z,69.06
2018-01-25T22:43:24.946Z,69.27
2018-01-25T22:48:26.260Z,69.25
2018-01-25T22:53:28.334Z,69.30
2018-01-25T22:58:29.644Z,69.20
2018-01-25T23:03:31.081Z,69.17
2018-01-25T23:08:32.412Z,69.24
2018-01-25T23:13:33.728Z,69.53
2018-01-25T23:18:35.868Z,69.92
2018-01-25T23:23:37.206Z,70.01
2018-01-25T23:28:38.527Z,69.97
2018-01-25T23:33:40.052Z,70.26
2018-01-25T23:38:41.398Z,70.46
2018-01-25T23:43:43.459Z,70.55
2018-01-25T23:48:44.790Z,70.57
2018-01-25T23:53:46.075Z,70.46
2018-01-25T23:58:48.119Z,70.49
